sensor_id;sensor_type;location;lat;lon;timestamp;P1;durP1;ratioP1;P2;durP2;ratioP2
1350;SDS011;669;50.206;9.998;2023-02-04T00:01:40;7.63;;;2.87;;
1350;SDS011;669;50.206;9.998;2023-02-04T00:04:08;11.97;;;2.20;;
1350;SDS011;669;50.206;9.998;2023-02-04T00:06:39;8.13;;;3.07;;
1350;SDS011;669;50.206;9.998;2023-02-04T00:09:07;10.67;;;2.90;;
1350;SDS011;669;50.206;9.998;2023-02-04T00:11:35;9.10;;;3.00;;
1350;SDS011;669;50.206;9.998;2023-02-04T00:14:03;15.30;;;2.83;;
1350;SDS011;669;50.206;9.998;2023-02-04T00:16:31;13.20;;;2.70;;
1350;SDS011;669;50.206;9.998;2023-02-04T00:18:58;10.13;;;3.50;;
1350;SDS011;669;50.206;9.998;2023-02-04T00:21:26;7.93;;;2.03;;
1350;SDS011;669;50.206;9.998;2023-02-04T00:23:55;9.10;;;2.90;;
1350;SDS011;669;50.206;9.998;2023-02-04T00:26:23;10.97;;;3.10;;
1350;SDS011;669;50.206;9.998;2023-02-04T00:28:51;9.63;;;2.20;;
1350;SDS011;669;50.206;9.998;2023-02-04T00:31:21;10.17;;;2.30;;
1350;SDS011;669;50.206;9.998;2023-02-04T00:33:49;12.03;;;3.13;;
1350;SDS011;669;50.206;9.998;2023-02-04T00:36:17;14.60;;;2.83;;
1350;SDS011;669;50.206;9.998;2023-02-04T00:38:45;8.60;;;2.53;;
1350;SDS011;669;50.206;9.998;2023-02-04T00:41:14;10.80;;;2.90;;
1350;SDS011;669;50.206;9.998;2023-02-04T00:43:42;2.83;;;1.50;;
1350;SDS011;669;50.206;9.998;2023-02-04T00:46:10;11.17;;;2.83;;
1350;SDS011;669;50.206;9.998;2023-02-04T00:48:38;9.60;;;3.47;;
1350;SDS011;669;50.206;9.998;2023-02-04T00:51:06;13.33;;;2.30;;
1350;SDS011;669;50.206;9.998;2023-02-04T00:53:33;17.50;;;2.50;;
1350;SDS011;669;50.206;9.998;2023-02-04T00:56:01;15.63;;;3.77;;
1350;SDS011;669;50.206;9.998;2023-02-04T00:58:30;8.80;;;2.63;;
1350;SDS011;669;50.206;9.998;2023-02-04T01:00:58;10.40;;;3.50;;
1350;SDS011;669;50.206;9.998;2023-02-04T01:03:26;11.67;;;2.93;;
1350;SDS011;669;50.206;9.998;2023-02-04T01:05:54;16.93;;;2.63;;
1350;SDS011;669;50.206;9.998;2023-02-04T01:08:22;11.13;;;3.07;;
1350;SDS011;669;50.206;9.998;2023-02-04T01:10:50;13.43;;;2.83;;
1350;SDS011;669;50.206;9.998;2023-02-04T01:13:18;9.93;;;2.80;;
1350;SDS011;669;50.206;9.998;2023-02-04T01:15:47;10.63;;;3.30;;
1350;SDS011;669;50.206;9.998;2023-02-04T01:18:15;9.20;;;1.97;;
1350;SDS011;669;50.206;9.998;2023-02-04T01:20:43;8.70;;;2.60;;
1350;SDS011;669;50.206;9.998;2023-02-04T01:23:10;8.83;;;2.27;;
1350;SDS011;669;50.206;9.998;2023-02-04T01:25:38;14.83;;;2.77;;
1350;SDS011;669;50.206;9.998;2023-02-04T01:28:06;8.83;;;2.60;;
1350;SDS011;669;50.206;9.998;2023-02-04T01:30:34;7.87;;;2.27;;
1350;SDS011;669;50.206;9.998;2023-02-04T01:33:03;16.20;;;3.10;;
1350;SDS011;669;50.206;9.998;2023-02-04T01:35:31;7.50;;;3.20;;
1350;SDS011;669;50.206;9.998;2023-02-04T01:37:59;13.43;;;2.70;;
1350;SDS011;669;50.206;9.998;2023-02-04T01:40:27;9.60;;;2.57;;
1350;SDS011;669;50.206;9.998;2023-02-04T01:42:56;5.80;;;2.23;;
1350;SDS011;669;50.206;9.998;2023-02-04T01:45:24;8.70;;;2.23;;
1350;SDS011;669;50.206;9.998;2023-02-04T01:47:51;7.33;;;2.27;;
1350;SDS011;669;50.206;9.998;2023-02-04T01:50:21;9.17;;;2.93;;
1350;SDS011;669;50.206;9.998;2023-02-04T01:52:49;6.27;;;2.30;;
1350;SDS011;669;50.206;9.998;2023-02-04T01:55:18;6.60;;;2.20;;
1350;SDS011;669;50.206;9.998;2023-02-04T01:57:48;6.60;;;2.27;;
1350;SDS011;669;50.206;9.998;2023-02-04T02:00:20;15.50;;;2.73;;
1350;SDS011;669;50.206;9.998;2023-02-04T02:02:51;11.00;;;2.00;;
1350;SDS011;669;50.206;9.998;2023-02-04T02:05:22;8.13;;;2.33;;
1350;SDS011;669;50.206;9.998;2023-02-04T02:07:52;12.53;;;2.93;;
1350;SDS011;669;50.206;9.998;2023-02-04T02:10:22;15.13;;;2.63;;
1350;SDS011;669;50.206;9.998;2023-02-04T02:12:50;8.53;;;2.30;;
1350;SDS011;669;50.206;9.998;2023-02-04T02:15:20;17.03;;;3.97;;
1350;SDS011;669;50.206;9.998;2023-02-04T02:17:50;5.80;;;2.50;;
1350;SDS011;669;50.206;9.998;2023-02-04T02:20:19;11.63;;;1.97;;
1350;SDS011;669;50.206;9.998;2023-02-04T02:22:55;8.53;;;2.00;;
1350;SDS011;669;50.206;9.998;2023-02-04T02:25:30;12.90;;;2.23;;
1350;SDS011;669;50.206;9.998;2023-02-04T02:27:58;12.40;;;2.60;;
1350;SDS011;669;50.206;9.998;2023-02-04T02:30:27;7.97;;;2.80;;
1350;SDS011;669;50.206;9.998;2023-02-04T02:32:56;6.10;;;3.13;;
1350;SDS011;669;50.206;9.998;2023-02-04T02:35:24;4.77;;;1.57;;
1350;SDS011;669;50.206;9.998;2023-02-04T02:37:52;9.63;;;1.67;;
1350;SDS011;669;50.206;9.998;2023-02-04T02:40:20;10.30;;;2.30;;
1350;SDS011;669;50.206;9.998;2023-02-04T02:42:50;7.33;;;2.33;;
1350;SDS011;669;50.206;9.998;2023-02-04T02:45:21;10.77;;;2.47;;
1350;SDS011;669;50.206;9.998;2023-02-04T02:47:51;14.27;;;2.60;;
1350;SDS011;669;50.206;9.998;2023-02-04T02:50:21;13.87;;;2.63;;
1350;SDS011;669;50.206;9.998;2023-02-04T02:52:51;11.17;;;2.90;;
1350;SDS011;669;50.206;9.998;2023-02-04T02:55:21;9.10;;;2.47;;
1350;SDS011;669;50.206;9.998;2023-02-04T02:57:52;9.70;;;2.47;;
1350;SDS011;669;50.206;9.998;2023-02-04T03:00:22;7.30;;;2.67;;
1350;SDS011;669;50.206;9.998;2023-02-04T03:02:53;12.40;;;3.30;;
1350;SDS011;669;50.206;9.998;2023-02-04T03:05:25;9.10;;;2.20;;
1350;SDS011;669;50.206;9.998;2023-02-04T03:07:54;10.93;;;2.70;;
1350;SDS011;669;50.206;9.998;2023-02-04T03:10:22;17.43;;;2.43;;
1350;SDS011;669;50.206;9.998;2023-02-04T03:12:51;5.63;;;1.57;;
1350;SDS011;669;50.206;9.998;2023-02-04T03:15:20;12.20;;;3.73;;
1350;SDS011;669;50.206;9.998;2023-02-04T03:17:48;10.07;;;2.60;;
1350;SDS011;669;50.206;9.998;2023-02-04T03:20:21;13.77;;;3.90;;
1350;SDS011;669;50.206;9.998;2023-02-04T03:22:50;9.47;;;2.67;;
1350;SDS011;669;50.206;9.998;2023-02-04T03:25:19;11.30;;;3.47;;
1350;SDS011;669;50.206;9.998;2023-02-04T03:27:49;11.33;;;2.47;;
1350;SDS011;669;50.206;9.998;2023-02-04T03:30:20;6.43;;;2.77;;
1350;SDS011;669;50.206;9.998;2023-02-04T03:32:48;7.37;;;2.60;;
1350;SDS011;669;50.206;9.998;2023-02-04T03:35:17;19.57;;;2.97;;
1350;SDS011;669;50.206;9.998;2023-02-04T03:37:45;6.80;;;2.60;;
1350;SDS011;669;50.206;9.998;2023-02-04T03:40:12;18.30;;;3.07;;
1350;SDS011;669;50.206;9.998;2023-02-04T03:42:40;9.57;;;2.67;;
1350;SDS011;669;50.206;9.998;2023-02-04T03:45:10;11.27;;;2.80;;
1350;SDS011;669;50.206;9.998;2023-02-04T03:47:38;15.03;;;2.87;;
1350;SDS011;669;50.206;9.998;2023-02-04T03:50:06;11.30;;;3.23;;
1350;SDS011;669;50.206;9.998;2023-02-04T03:52:36;10.70;;;2.13;;
1350;SDS011;669;50.206;9.998;2023-02-04T03:55:05;16.33;;;3.70;;
1350;SDS011;669;50.206;9.998;2023-02-04T03:57:33;6.90;;;1.83;;
1350;SDS011;669;50.206;9.998;2023-02-04T04:00:01;8.57;;;3.20;;
1350;SDS011;669;50.206;9.998;2023-02-04T04:02:31;10.50;;;2.50;;
1350;SDS011;669;50.206;9.998;2023-02-04T04:04:59;8.57;;;2.00;;
1350;SDS011;669;50.206;9.998;2023-02-04T04:07:26;9.47;;;2.10;;
1350;SDS011;669;50.206;9.998;2023-02-04T04:09:54;14.00;;;3.07;;
1350;SDS011;669;50.206;9.998;2023-02-04T04:12:22;19.83;;;2.87;;
1350;SDS011;669;50.206;9.998;2023-02-04T04:14:50;12.50;;;2.40;;
1350;SDS011;669;50.206;9.998;2023-02-04T04:17:18;15.47;;;4.40;;
1350;SDS011;669;50.206;9.998;2023-02-04T04:19:47;14.63;;;2.90;;
1350;SDS011;669;50.206;9.998;2023-02-04T04:22:15;11.10;;;3.43;;
1350;SDS011;669;50.206;9.998;2023-02-04T04:24:43;6.47;;;2.00;;
1350;SDS011;669;50.206;9.998;2023-02-04T04:27:11;10.53;;;3.10;;
1350;SDS011;669;50.206;9.998;2023-02-04T04:29:39;17.33;;;4.33;;
1350;SDS011;669;50.206;9.998;2023-02-04T04:32:07;7.77;;;2.43;;
1350;SDS011;669;50.206;9.998;2023-02-04T04:34:35;8.73;;;1.77;;
1350;SDS011;669;50.206;9.998;2023-02-04T04:37:04;16.43;;;2.83;;
1350;SDS011;669;50.206;9.998;2023-02-04T04:39:32;10.83;;;2.70;;
1350;SDS011;669;50.206;9.998;2023-02-04T04:42:00;9.43;;;2.77;;
1350;SDS011;669;50.206;9.998;2023-02-04T04:44:28;10.27;;;3.10;;
1350;SDS011;669;50.206;9.998;2023-02-04T04:46:56;8.60;;;2.13;;
1350;SDS011;669;50.206;9.998;2023-02-04T04:49:24;8.50;;;1.97;;
1350;SDS011;669;50.206;9.998;2023-02-04T04:51:52;14.37;;;3.13;;
1350;SDS011;669;50.206;9.998;2023-02-04T04:54:21;8.77;;;3.43;;
1350;SDS011;669;50.206;9.998;2023-02-04T04:56:49;11.17;;;5.20;;
1350;SDS011;669;50.206;9.998;2023-02-04T04:59:17;9.33;;;2.27;;
1350;SDS011;669;50.206;9.998;2023-02-04T05:01:45;12.73;;;2.43;;
1350;SDS011;669;50.206;9.998;2023-02-04T05:04:13;11.93;;;2.60;;
1350;SDS011;669;50.206;9.998;2023-02-04T05:06:41;7.70;;;2.70;;
1350;SDS011;669;50.206;9.998;2023-02-04T05:09:08;11.40;;;2.70;;
1350;SDS011;669;50.206;9.998;2023-02-04T05:11:38;26.10;;;3.00;;
1350;SDS011;669;50.206;9.998;2023-02-04T05:14:06;8.63;;;2.77;;
1350;SDS011;669;50.206;9.998;2023-02-04T05:16:33;7.07;;;2.03;;
1350;SDS011;669;50.206;9.998;2023-02-04T05:19:01;6.43;;;2.17;;
1350;SDS011;669;50.206;9.998;2023-02-04T05:21:29;11.00;;;2.00;;
1350;SDS011;669;50.206;9.998;2023-02-04T05:23:57;4.80;;;2.00;;
1350;SDS011;669;50.206;9.998;2023-02-04T05:26:25;4.63;;;1.50;;
1350;SDS011;669;50.206;9.998;2023-02-04T05:28:57;4.93;;;1.63;;
1350;SDS011;669;50.206;9.998;2023-02-04T05:31:26;10.37;;;3.70;;
1350;SDS011;669;50.206;9.998;2023-02-04T05:33:54;8.43;;;1.40;;
1350;SDS011;669;50.206;9.998;2023-02-04T05:36:22;1.73;;;1.03;;
1350;SDS011;669;50.206;9.998;2023-02-04T05:38:50;6.83;;;1.53;;
1350;SDS011;669;50.206;9.998;2023-02-04T05:41:18;8.37;;;2.03;;
1350;SDS011;669;50.206;9.998;2023-02-04T05:43:46;8.90;;;2.53;;
1350;SDS011;669;50.206;9.998;2023-02-04T05:46:15;9.93;;;2.37;;
1350;SDS011;669;50.206;9.998;2023-02-04T05:48:43;5.53;;;1.53;;
1350;SDS011;669;50.206;9.998;2023-02-04T05:51:11;4.40;;;1.30;;
1350;SDS011;669;50.206;9.998;2023-02-04T05:53:39;3.63;;;1.60;;
1350;SDS011;669;50.206;9.998;2023-02-04T05:56:07;3.13;;;1.60;;
1350;SDS011;669;50.206;9.998;2023-02-04T05:58:35;2.97;;;0.90;;
1350;SDS011;669;50.206;9.998;2023-02-04T06:01:05;3.03;;;0.90;;
1350;SDS011;669;50.206;9.998;2023-02-04T06:03:34;2.60;;;1.07;;
1350;SDS011;669;50.206;9.998;2023-02-04T06:06:02;1.63;;;0.83;;
1350;SDS011;669;50.206;9.998;2023-02-04T06:08:30;2.20;;;1.40;;
1350;SDS011;669;50.206;9.998;2023-02-04T06:10:58;3.17;;;1.20;;
1350;SDS011;669;50.206;9.998;2023-02-04T06:13:26;2.97;;;1.30;;
1350;SDS011;669;50.206;9.998;2023-02-04T06:15:54;1.90;;;1.07;;
1350;SDS011;669;50.206;9.998;2023-02-04T06:18:22;7.73;;;1.97;;
1350;SDS011;669;50.206;9.998;2023-02-04T06:20:51;3.33;;;2.23;;
1350;SDS011;669;50.206;9.998;2023-02-04T06:23:19;4.17;;;2.30;;
1350;SDS011;669;50.206;9.998;2023-02-04T06:25:47;14.10;;;7.33;;
1350;SDS011;669;50.206;9.998;2023-02-04T06:28:15;13.10;;;5.10;;
1350;SDS011;669;50.206;9.998;2023-02-04T06:30:43;4.77;;;3.40;;
1350;SDS011;669;50.206;9.998;2023-02-04T06:33:11;5.63;;;3.50;;
1350;SDS011;669;50.206;9.998;2023-02-04T06:35:39;3.97;;;2.30;;
1350;SDS011;669;50.206;9.998;2023-02-04T06:38:08;7.17;;;2.33;;
1350;SDS011;669;50.206;9.998;2023-02-04T06:40:36;2.30;;;2.10;;
1350;SDS011;669;50.206;9.998;2023-02-04T06:43:04;6.63;;;2.03;;
1350;SDS011;669;50.206;9.998;2023-02-04T06:45:32;1.63;;;1.43;;
1350;SDS011;669;50.206;9.998;2023-02-04T06:48:01;3.83;;;1.47;;
1350;SDS011;669;50.206;9.998;2023-02-04T06:50:28;1.60;;;1.40;;
1350;SDS011;669;50.206;9.998;2023-02-04T06:52:57;3.80;;;1.10;;
1350;SDS011;669;50.206;9.998;2023-02-04T06:55:26;3.93;;;1.17;;
1350;SDS011;669;50.206;9.998;2023-02-04T06:57:54;3.07;;;1.20;;
1350;SDS011;669;50.206;9.998;2023-02-04T07:00:22;10.00;;;1.83;;
1350;SDS011;669;50.206;9.998;2023-02-04T07:02:50;1.43;;;1.10;;
1350;SDS011;669;50.206;9.998;2023-02-04T07:05:18;2.63;;;1.20;;
1350;SDS011;669;50.206;9.998;2023-02-04T07:07:46;12.57;;;2.27;;
1350;SDS011;669;50.206;9.998;2023-02-04T07:10:14;3.97;;;1.43;;
1350;SDS011;669;50.206;9.998;2023-02-04T07:12:44;12.83;;;1.77;;
1350;SDS011;669;50.206;9.998;2023-02-04T07:15:12;9.87;;;3.30;;
1350;SDS011;669;50.206;9.998;2023-02-04T07:17:40;6.10;;;1.83;;
1350;SDS011;669;50.206;9.998;2023-02-04T07:20:08;3.80;;;1.73;;
1350;SDS011;669;50.206;9.998;2023-02-04T07:22:37;6.93;;;1.50;;
1350;SDS011;669;50.206;9.998;2023-02-04T07:25:08;4.73;;;1.40;;
1350;SDS011;669;50.206;9.998;2023-02-04T07:27:36;1.83;;;1.00;;
1350;SDS011;669;50.206;9.998;2023-02-04T07:30:07;3.80;;;1.37;;
1350;SDS011;669;50.206;9.998;2023-02-04T07:32:36;2.10;;;0.90;;
1350;SDS011;669;50.206;9.998;2023-02-04T07:35:04;2.70;;;1.00;;
1350;SDS011;669;50.206;9.998;2023-02-04T07:37:32;2.00;;;1.00;;
1350;SDS011;669;50.206;9.998;2023-02-04T07:40:00;2.97;;;0.70;;
1350;SDS011;669;50.206;9.998;2023-02-04T07:42:28;0.93;;;0.70;;
1350;SDS011;669;50.206;9.998;2023-02-04T07:44:56;2.13;;;0.87;;
1350;SDS011;669;50.206;9.998;2023-02-04T07:47:25;2.87;;;1.10;;
1350;SDS011;669;50.206;9.998;2023-02-04T07:49:53;1.53;;;0.60;;
1350;SDS011;669;50.206;9.998;2023-02-04T07:52:22;2.77;;;0.67;;
1350;SDS011;669;50.206;9.998;2023-02-04T07:54:50;1.60;;;1.10;;
1350;SDS011;669;50.206;9.998;2023-02-04T07:57:18;2.50;;;0.80;;
1350;SDS011;669;50.206;9.998;2023-02-04T07:59:46;0.63;;;0.63;;
1350;SDS011;669;50.206;9.998;2023-02-04T08:02:14;7.13;;;0.80;;
1350;SDS011;669;50.206;9.998;2023-02-04T08:04:43;0.50;;;0.47;;
1350;SDS011;669;50.206;9.998;2023-02-04T08:07:11;0.60;;;0.60;;
1350;SDS011;669;50.206;9.998;2023-02-04T08:09:39;1.17;;;0.50;;
1350;SDS011;669;50.206;9.998;2023-02-04T08:12:07;0.70;;;0.50;;
1350;SDS011;669;50.206;9.998;2023-02-04T08:14:35;1.70;;;1.00;;
1350;SDS011;669;50.206;9.998;2023-02-04T08:17:05;0.63;;;0.50;;
1350;SDS011;669;50.206;9.998;2023-02-04T08:19:33;1.53;;;0.60;;
1350;SDS011;669;50.206;9.998;2023-02-04T08:22:02;0.63;;;0.63;;
1350;SDS011;669;50.206;9.998;2023-02-04T08:24:30;3.60;;;1.13;;
1350;SDS011;669;50.206;9.998;2023-02-04T08:26:58;0.93;;;0.67;;
1350;SDS011;669;50.206;9.998;2023-02-04T08:29:25;0.70;;;0.53;;
1350;SDS011;669;50.206;9.998;2023-02-04T08:31:53;2.50;;;0.83;;
1350;SDS011;669;50.206;9.998;2023-02-04T08:34:21;1.60;;;0.60;;
1350;SDS011;669;50.206;9.998;2023-02-04T08:36:49;1.27;;;0.80;;
1350;SDS011;669;50.206;9.998;2023-02-04T08:39:18;3.53;;;1.00;;
1350;SDS011;669;50.206;9.998;2023-02-04T08:41:47;1.73;;;0.80;;
1350;SDS011;669;50.206;9.998;2023-02-04T08:44:16;1.23;;;1.13;;
1350;SDS011;669;50.206;9.998;2023-02-04T08:46:44;1.57;;;0.80;;
1350;SDS011;669;50.206;9.998;2023-02-04T08:49:12;3.03;;;0.63;;
1350;SDS011;669;50.206;9.998;2023-02-04T08:51:40;1.80;;;0.63;;
1350;SDS011;669;50.206;9.998;2023-02-04T08:54:08;0.63;;;0.63;;
1350;SDS011;669;50.206;9.998;2023-02-04T08:56:37;1.00;;;0.63;;
1350;SDS011;669;50.206;9.998;2023-02-04T08:59:05;0.70;;;0.70;;
1350;SDS011;669;50.206;9.998;2023-02-04T09:01:33;2.23;;;0.70;;
1350;SDS011;669;50.206;9.998;2023-02-04T09:04:01;0.70;;;0.50;;
1350;SDS011;669;50.206;9.998;2023-02-04T09:06:29;2.00;;;1.00;;
1350;SDS011;669;50.206;9.998;2023-02-04T09:08:57;1.50;;;0.83;;
1350;SDS011;669;50.206;9.998;2023-02-04T09:11:24;0.60;;;0.60;;
1350;SDS011;669;50.206;9.998;2023-02-04T09:13:54;0.97;;;0.50;;
1350;SDS011;669;50.206;9.998;2023-02-04T09:16:22;2.23;;;0.53;;
1350;SDS011;669;50.206;9.998;2023-02-04T09:18:50;0.70;;;0.70;;
1350;SDS011;669;50.206;9.998;2023-02-04T09:21:18;1.13;;;0.70;;
1350;SDS011;669;50.206;9.998;2023-02-04T09:23:46;0.43;;;0.43;;
1350;SDS011;669;50.206;9.998;2023-02-04T09:26:14;0.40;;;0.40;;
1350;SDS011;669;50.206;9.998;2023-02-04T09:28:42;0.93;;;0.93;;
1350;SDS011;669;50.206;9.998;2023-02-04T09:31:12;1.43;;;0.87;;
1350;SDS011;669;50.206;9.998;2023-02-04T09:33:40;1.67;;;0.73;;
1350;SDS011;669;50.206;9.998;2023-02-04T09:36:08;0.97;;;0.97;;
1350;SDS011;669;50.206;9.998;2023-02-04T09:38:36;1.17;;;0.90;;
1350;SDS011;669;50.206;9.998;2023-02-04T09:41:06;0.87;;;0.80;;
1350;SDS011;669;50.206;9.998;2023-02-04T09:43:37;0.50;;;0.50;;
1350;SDS011;669;50.206;9.998;2023-02-04T09:46:08;1.70;;;0.77;;
1350;SDS011;669;50.206;9.998;2023-02-04T09:48:46;1.90;;;0.70;;
1350;SDS011;669;50.206;9.998;2023-02-04T09:51:16;0.60;;;0.60;;
1350;SDS011;669;50.206;9.998;2023-02-04T09:53:46;0.80;;;0.80;;
1350;SDS011;669;50.206;9.998;2023-02-04T09:56:16;0.53;;;0.53;;
1350;SDS011;669;50.206;9.998;2023-02-04T09:58:44;0.70;;;0.60;;
1350;SDS011;669;50.206;9.998;2023-02-04T10:01:13;0.70;;;0.70;;
1350;SDS011;669;50.206;9.998;2023-02-04T10:03:44;0.73;;;0.73;;
1350;SDS011;669;50.206;9.998;2023-02-04T10:06:14;0.80;;;0.80;;
1350;SDS011;669;50.206;9.998;2023-02-04T10:08:44;0.93;;;0.93;;
1350;SDS011;669;50.206;9.998;2023-02-04T10:11:13;0.77;;;0.77;;
1350;SDS011;669;50.206;9.998;2023-02-04T10:13:44;1.07;;;0.67;;
1350;SDS011;669;50.206;9.998;2023-02-04T10:16:17;0.80;;;0.80;;
1350;SDS011;669;50.206;9.998;2023-02-04T10:18:47;1.20;;;1.20;;
1350;SDS011;669;50.206;9.998;2023-02-04T10:21:16;1.00;;;0.90;;
1350;SDS011;669;50.206;9.998;2023-02-04T10:23:46;1.10;;;1.00;;
1350;SDS011;669;50.206;9.998;2023-02-04T10:26:16;0.83;;;0.83;;
1350;SDS011;669;50.206;9.998;2023-02-04T10:28:44;1.40;;;1.13;;
1350;SDS011;669;50.206;9.998;2023-02-04T10:31:29;0.83;;;0.83;;
1350;SDS011;669;50.206;9.998;2023-02-04T10:34:06;0.80;;;0.80;;
1350;SDS011;669;50.206;9.998;2023-02-04T10:36:37;2.50;;;1.10;;
1350;SDS011;669;50.206;9.998;2023-02-04T10:39:09;1.47;;;1.27;;
1350;SDS011;669;50.206;9.998;2023-02-04T10:41:43;0.90;;;0.83;;
1350;SDS011;669;50.206;9.998;2023-02-04T10:44:15;0.60;;;0.60;;
1350;SDS011;669;50.206;9.998;2023-02-04T10:46:46;1.57;;;1.10;;
1350;SDS011;669;50.206;9.998;2023-02-04T10:49:18;0.97;;;0.97;;
1350;SDS011;669;50.206;9.998;2023-02-04T10:51:48;1.10;;;1.10;;
1350;SDS011;669;50.206;9.998;2023-02-04T10:54:18;0.90;;;0.90;;
1350;SDS011;669;50.206;9.998;2023-02-04T10:56:57;1.37;;;0.83;;
1350;SDS011;669;50.206;9.998;2023-02-04T10:59:28;1.30;;;1.20;;
1350;SDS011;669;50.206;9.998;2023-02-04T11:01:59;2.43;;;0.70;;
1350;SDS011;669;50.206;9.998;2023-02-04T11:04:29;1.20;;;0.50;;
1350;SDS011;669;50.206;9.998;2023-02-04T11:06:57;0.93;;;0.90;;
1350;SDS011;669;50.206;9.998;2023-02-04T11:09:26;0.77;;;0.77;;
1350;SDS011;669;50.206;9.998;2023-02-04T11:11:56;0.80;;;0.80;;
1350;SDS011;669;50.206;9.998;2023-02-04T11:14:26;0.53;;;0.53;;
1350;SDS011;669;50.206;9.998;2023-02-04T11:16:56;0.60;;;0.60;;
1350;SDS011;669;50.206;9.998;2023-02-04T11:19:32;0.87;;;0.63;;
1350;SDS011;669;50.206;9.998;2023-02-04T11:22:04;1.37;;;1.00;;
1350;SDS011;669;50.206;9.998;2023-02-04T11:24:34;0.50;;;0.50;;
1350;SDS011;669;50.206;9.998;2023-02-04T11:27:05;0.60;;;0.60;;
1350;SDS011;669;50.206;9.998;2023-02-04T11:29:44;0.60;;;0.60;;
1350;SDS011;669;50.206;9.998;2023-02-04T11:32:27;0.80;;;0.80;;
1350;SDS011;669;50.206;9.998;2023-02-04T11:37:50;0.90;;;0.70;;
1350;SDS011;669;50.206;9.998;2023-02-04T11:40:28;0.70;;;0.70;;
1350;SDS011;669;50.206;9.998;2023-02-04T11:42:58;0.70;;;0.70;;
1350;SDS011;669;50.206;9.998;2023-02-04T11:45:28;0.70;;;0.70;;
1350;SDS011;669;50.206;9.998;2023-02-04T11:48:01;0.97;;;0.80;;
1350;SDS011;669;50.206;9.998;2023-02-04T11:50:37;0.70;;;0.60;;
1350;SDS011;669;50.206;9.998;2023-02-04T11:53:07;0.90;;;0.90;;
1350;SDS011;669;50.206;9.998;2023-02-04T11:55:42;1.13;;;1.10;;
1350;SDS011;669;50.206;9.998;2023-02-04T11:58:14;0.80;;;0.80;;
1350;SDS011;669;50.206;9.998;2023-02-04T12:00:43;1.10;;;0.90;;
1350;SDS011;669;50.206;9.998;2023-02-04T12:03:23;0.80;;;0.57;;
1350;SDS011;669;50.206;9.998;2023-02-04T12:05:52;2.20;;;0.90;;
1350;SDS011;669;50.206;9.998;2023-02-04T12:08:24;0.80;;;0.80;;
1350;SDS011;669;50.206;9.998;2023-02-04T12:11:04;2.23;;;1.03;;
1350;SDS011;669;50.206;9.998;2023-02-04T12:13:44;1.63;;;0.87;;
1350;SDS011;669;50.206;9.998;2023-02-04T12:16:14;1.20;;;1.20;;
1350;SDS011;669;50.206;9.998;2023-02-04T12:18:44;0.93;;;0.93;;
1350;SDS011;669;50.206;9.998;2023-02-04T12:21:12;0.73;;;0.70;;
1350;SDS011;669;50.206;9.998;2023-02-04T12:23:40;0.90;;;0.90;;
1350;SDS011;669;50.206;9.998;2023-02-04T12:26:09;1.03;;;1.03;;
1350;SDS011;669;50.206;9.998;2023-02-04T12:28:38;1.07;;;0.83;;
1350;SDS011;669;50.206;9.998;2023-02-04T12:31:06;0.80;;;0.80;;
1350;SDS011;669;50.206;9.998;2023-02-04T12:33:34;1.20;;;1.10;;
1350;SDS011;669;50.206;9.998;2023-02-04T12:36:03;1.13;;;0.80;;
1350;SDS011;669;50.206;9.998;2023-02-04T12:38:31;0.80;;;0.80;;
1350;SDS011;669;50.206;9.998;2023-02-04T12:41:00;1.00;;;0.90;;
1350;SDS011;669;50.206;9.998;2023-02-04T12:43:29;0.63;;;0.63;;
1350;SDS011;669;50.206;9.998;2023-02-04T12:45:57;0.80;;;0.80;;
1350;SDS011;669;50.206;9.998;2023-02-04T12:48:25;0.90;;;0.90;;
1350;SDS011;669;50.206;9.998;2023-02-04T12:50:54;0.50;;;0.50;;
1350;SDS011;669;50.206;9.998;2023-02-04T12:53:23;0.87;;;0.87;;
1350;SDS011;669;50.206;9.998;2023-02-04T12:55:51;0.77;;;0.77;;
1350;SDS011;669;50.206;9.998;2023-02-04T12:58:20;1.13;;;0.90;;
1350;SDS011;669;50.206;9.998;2023-02-04T13:00:48;0.60;;;0.60;;
1350;SDS011;669;50.206;9.998;2023-02-04T13:03:16;0.63;;;0.60;;
1350;SDS011;669;50.206;9.998;2023-02-04T13:05:44;0.90;;;0.73;;
1350;SDS011;669;50.206;9.998;2023-02-04T13:08:12;0.77;;;0.77;;
1350;SDS011;669;50.206;9.998;2023-02-04T13:10:41;0.90;;;0.90;;
1350;SDS011;669;50.206;9.998;2023-02-04T13:13:09;0.77;;;0.77;;
1350;SDS011;669;50.206;9.998;2023-02-04T13:15:37;0.77;;;0.70;;
1350;SDS011;669;50.206;9.998;2023-02-04T13:18:05;1.03;;;0.80;;
1350;SDS011;669;50.206;9.998;2023-02-04T13:20:33;0.80;;;0.80;;
1350;SDS011;669;50.206;9.998;2023-02-04T13:23:01;0.87;;;0.87;;
1350;SDS011;669;50.206;9.998;2023-02-04T13:25:29;0.70;;;0.70;;
1350;SDS011;669;50.206;9.998;2023-02-04T13:27:59;0.77;;;0.77;;
1350;SDS011;669;50.206;9.998;2023-02-04T13:30:27;0.70;;;0.70;;
1350;SDS011;669;50.206;9.998;2023-02-04T13:32:55;0.70;;;0.70;;
1350;SDS011;669;50.206;9.998;2023-02-04T13:35:23;0.60;;;0.60;;
1350;SDS011;669;50.206;9.998;2023-02-04T13:37:51;0.53;;;0.53;;
1350;SDS011;669;50.206;9.998;2023-02-04T13:40:21;1.40;;;0.60;;
1350;SDS011;669;50.206;9.998;2023-02-04T13:42:49;0.80;;;0.80;;
1350;SDS011;669;50.206;9.998;2023-02-04T13:45:18;0.60;;;0.60;;
1350;SDS011;669;50.206;9.998;2023-02-04T13:47:46;0.60;;;0.60;;
1350;SDS011;669;50.206;9.998;2023-02-04T13:50:14;1.50;;;1.40;;
1350;SDS011;669;50.206;9.998;2023-02-04T13:52:42;0.70;;;0.70;;
1350;SDS011;669;50.206;9.998;2023-02-04T13:55:10;1.00;;;0.90;;
1350;SDS011;669;50.206;9.998;2023-02-04T13:57:38;0.70;;;0.70;;
1350;SDS011;669;50.206;9.998;2023-02-04T14:00:07;0.70;;;0.70;;
1350;SDS011;669;50.206;9.998;2023-02-04T14:02:37;1.20;;;0.83;;
1350;SDS011;669;50.206;9.998;2023-02-04T14:05:05;0.80;;;0.80;;
1350;SDS011;669;50.206;9.998;2023-02-04T14:07:33;0.97;;;0.97;;
1350;SDS011;669;50.206;9.998;2023-02-04T14:10:01;0.60;;;0.60;;
1350;SDS011;669;50.206;9.998;2023-02-04T14:12:29;0.97;;;0.97;;
1350;SDS011;669;50.206;9.998;2023-02-04T14:14:57;0.90;;;0.90;;
1350;SDS011;669;50.206;9.998;2023-02-04T14:17:25;0.90;;;0.90;;
1350;SDS011;669;50.206;9.998;2023-02-04T14:19:54;3.13;;;0.77;;
1350;SDS011;669;50.206;9.998;2023-02-04T14:22:22;0.90;;;0.70;;
1350;SDS011;669;50.206;9.998;2023-02-04T14:24:50;0.70;;;0.70;;
1350;SDS011;669;50.206;9.998;2023-02-04T14:27:19;5.57;;;1.03;;
1350;SDS011;669;50.206;9.998;2023-02-04T14:29:47;3.03;;;0.87;;
1350;SDS011;669;50.206;9.998;2023-02-04T14:32:14;0.73;;;0.73;;
1350;SDS011;669;50.206;9.998;2023-02-04T14:34:43;2.40;;;0.97;;
1350;SDS011;669;50.206;9.998;2023-02-04T14:37:12;0.93;;;0.93;;
1350;SDS011;669;50.206;9.998;2023-02-04T14:39:40;0.70;;;0.70;;
1350;SDS011;669;50.206;9.998;2023-02-04T14:42:08;0.80;;;0.80;;
1350;SDS011;669;50.206;9.998;2023-02-04T14:44:36;0.50;;;0.50;;
1350;SDS011;669;50.206;9.998;2023-02-04T14:47:04;0.90;;;0.70;;
1350;SDS011;669;50.206;9.998;2023-02-04T14:49:31;0.93;;;0.60;;
1350;SDS011;669;50.206;9.998;2023-02-04T14:52:02;0.57;;;0.57;;
1350;SDS011;669;50.206;9.998;2023-02-04T14:54:31;0.80;;;0.80;;
1350;SDS011;669;50.206;9.998;2023-02-04T14:56:59;0.60;;;0.60;;
1350;SDS011;669;50.206;9.998;2023-02-04T14:59:27;0.60;;;0.60;;
1350;SDS011;669;50.206;9.998;2023-02-04T15:01:55;1.63;;;0.60;;
1350;SDS011;669;50.206;9.998;2023-02-04T15:04:23;0.67;;;0.67;;
1350;SDS011;669;50.206;9.998;2023-02-04T15:06:51;1.27;;;1.13;;
1350;SDS011;669;50.206;9.998;2023-02-04T15:09:19;1.13;;;0.67;;
1350;SDS011;669;50.206;9.998;2023-02-04T15:11:48;0.53;;;0.53;;
1350;SDS011;669;50.206;9.998;2023-02-04T15:14:16;0.77;;;0.77;;
1350;SDS011;669;50.206;9.998;2023-02-04T15:16:45;0.97;;;0.97;;
1350;SDS011;669;50.206;9.998;2023-02-04T15:19:14;0.87;;;0.70;;
1350;SDS011;669;50.206;9.998;2023-02-04T15:21:44;2.57;;;0.90;;
1350;SDS011;669;50.206;9.998;2023-02-04T15:24:12;0.53;;;0.53;;
1350;SDS011;669;50.206;9.998;2023-02-04T15:26:40;0.70;;;0.70;;
1350;SDS011;669;50.206;9.998;2023-02-04T15:29:09;0.70;;;0.70;;
1350;SDS011;669;50.206;9.998;2023-02-04T15:31:37;0.80;;;0.80;;
1350;SDS011;669;50.206;9.998;2023-02-04T15:34:05;0.83;;;0.70;;
1350;SDS011;669;50.206;9.998;2023-02-04T15:36:33;0.70;;;0.70;;
1350;SDS011;669;50.206;9.998;2023-02-04T15:39:01;0.93;;;0.90;;
1350;SDS011;669;50.206;9.998;2023-02-04T15:41:29;0.90;;;0.70;;